sensor_id;sensor_type;location;lat;lon;timestamp;P1;durP1;ratioP1;P2;durP2;ratioP2
17173;SDS011;8702;48.130;-1.696;2022-12-29T00:02:00;19.30;;;4.30;;
17173;SDS011;8702;48.130;-1.696;2022-12-29T00:04:27;15.55;;;3.78;;
17173;SDS011;8702;48.130;-1.696;2022-12-29T00:06:54;20.00;;;4.05;;
17173;SDS011;8702;48.130;-1.696;2022-12-29T00:09:22;18.10;;;4.40;;
17173;SDS011;8702;48.130;-1.696;2022-12-29T00:11:49;19.90;;;4.68;;
17173;SDS011;8702;48.130;-1.696;2022-12-29T00:14:18;19.73;;;4.53;;
17173;SDS011;8702;48.130;-1.696;2022-12-29T00:17:03;17.48;;;4.28;;
17173;SDS011;8702;48.130;-1.696;2022-12-29T00:19:30;20.95;;;4.80;;
17173;SDS011;8702;48.130;-1.696;2022-12-29T00:22:15;16.45;;;4.40;;
17173;SDS011;8702;48.130;-1.696;2022-12-29T00:25:00;21.15;;;4.80;;
17173;SDS011;8702;48.130;-1.696;2022-12-29T00:27:45;20.27;;;5.05;;
17173;SDS011;8702;48.130;-1.696;2022-12-29T00:30:31;19.20;;;4.47;;
17173;SDS011;8702;48.130;-1.696;2022-12-29T00:33:17;19.77;;;4.80;;
17173;SDS011;8702;48.130;-1.696;2022-12-29T00:36:03;20.95;;;5.10;;
17173;SDS011;8702;48.130;-1.696;2022-12-29T00:38:32;20.63;;;5.03;;
17173;SDS011;8702;48.130;-1.696;2022-12-29T00:41:17;18.73;;;4.70;;
17173;SDS011;8702;48.130;-1.696;2022-12-29T00:44:01;20.70;;;4.70;;
17173;SDS011;8702;48.130;-1.696;2022-12-29T00:46:33;23.08;;;4.97;;
17173;SDS011;8702;48.130;-1.696;2022-12-29T00:49:00;20.70;;;4.78;;
17173;SDS011;8702;48.130;-1.696;2022-12-29T00:51:45;19.20;;;4.80;;
17173;SDS011;8702;48.130;-1.696;2022-12-29T00:54:13;22.55;;;4.78;;
17173;SDS011;8702;48.130;-1.696;2022-12-29T00:56:40;22.23;;;5.60;;
17173;SDS011;8702;48.130;-1.696;2022-12-29T00:59:08;19.70;;;4.78;;
17173;SDS011;8702;48.130;-1.696;2022-12-29T01:01:38;19.30;;;4.53;;
17173;SDS011;8702;48.130;-1.696;2022-12-29T01:04:05;20.88;;;4.97;;
17173;SDS011;8702;48.130;-1.696;2022-12-29T01:06:33;17.27;;;4.45;;
17173;SDS011;8702;48.130;-1.696;2022-12-29T01:09:02;16.63;;;4.70;;
17173;SDS011;8702;48.130;-1.696;2022-12-29T01:11:47;21.73;;;4.88;;
17173;SDS011;8702;48.130;-1.696;2022-12-29T01:14:14;21.23;;;4.60;;
17173;SDS011;8702;48.130;-1.696;2022-12-29T01:16:42;19.37;;;4.47;;
17173;SDS011;8702;48.130;-1.696;2022-12-29T01:19:10;18.77;;;4.75;;
17173;SDS011;8702;48.130;-1.696;2022-12-29T01:21:37;17.35;;;4.60;;
17173;SDS011;8702;48.130;-1.696;2022-12-29T01:24:05;20.38;;;5.03;;
17173;SDS011;8702;48.130;-1.696;2022-12-29T01:26:32;21.92;;;4.95;;
17173;SDS011;8702;48.130;-1.696;2022-12-29T01:28:59;21.10;;;5.00;;
17173;SDS011;8702;48.130;-1.696;2022-12-29T01:31:28;17.52;;;5.07;;
17173;SDS011;8702;48.130;-1.696;2022-12-29T01:33:57;19.48;;;4.65;;
17173;SDS011;8702;48.130;-1.696;2022-12-29T01:36:24;20.17;;;4.80;;
17173;SDS011;8702;48.130;-1.696;2022-12-29T01:38:51;16.70;;;4.15;;
17173;SDS011;8702;48.130;-1.696;2022-12-29T01:41:19;21.58;;;4.63;;
17173;SDS011;8702;48.130;-1.696;2022-12-29T01:43:46;22.27;;;4.88;;
17173;SDS011;8702;48.130;-1.696;2022-12-29T01:46:21;16.40;;;4.28;;
17173;SDS011;8702;48.130;-1.696;2022-12-29T01:48:51;16.85;;;4.07;;
17173;SDS011;8702;48.130;-1.696;2022-12-29T01:51:21;16.95;;;4.18;;
17173;SDS011;8702;48.130;-1.696;2022-12-29T01:53:51;19.38;;;4.25;;
17173;SDS011;8702;48.130;-1.696;2022-12-29T01:56:21;15.20;;;4.40;;
17173;SDS011;8702;48.130;-1.696;2022-12-29T01:58:50;17.00;;;3.58;;
17173;SDS011;8702;48.130;-1.696;2022-12-29T02:01:24;16.13;;;3.53;;
17173;SDS011;8702;48.130;-1.696;2022-12-29T02:03:52;14.18;;;3.33;;
17173;SDS011;8702;48.130;-1.696;2022-12-29T02:06:21;13.38;;;3.38;;
17173;SDS011;8702;48.130;-1.696;2022-12-29T02:08:49;12.90;;;3.47;;
17173;SDS011;8702;48.130;-1.696;2022-12-29T02:11:17;15.00;;;3.60;;
17173;SDS011;8702;48.130;-1.696;2022-12-29T02:13:45;17.73;;;3.95;;
17173;SDS011;8702;48.130;-1.696;2022-12-29T02:16:19;16.45;;;3.70;;
17173;SDS011;8702;48.130;-1.696;2022-12-29T02:18:50;15.02;;;3.63;;
17173;SDS011;8702;48.130;-1.696;2022-12-29T02:24:30;13.95;;;4.18;;
17173;SDS011;8702;48.130;-1.696;2022-12-29T02:27:10;16.33;;;3.78;;
17173;SDS011;8702;48.130;-1.696;2022-12-29T02:32:27;13.47;;;3.60;;
17173;SDS011;8702;48.130;-1.696;2022-12-29T02:34:58;16.90;;;4.35;;
17173;SDS011;8702;48.130;-1.696;2022-12-29T02:37:30;17.88;;;4.13;;
17173;SDS011;8702;48.130;-1.696;2022-12-29T02:39:59;17.23;;;3.93;;
17173;SDS011;8702;48.130;-1.696;2022-12-29T02:42:33;15.68;;;4.15;;
17173;SDS011;8702;48.130;-1.696;2022-12-29T02:45:03;17.05;;;4.53;;
17173;SDS011;8702;48.130;-1.696;2022-12-29T02:47:37;19.58;;;4.60;;
17173;SDS011;8702;48.130;-1.696;2022-12-29T02:50:08;19.27;;;4.35;;
17173;SDS011;8702;48.130;-1.696;2022-12-29T02:52:42;19.40;;;4.50;;
17173;SDS011;8702;48.130;-1.696;2022-12-29T02:55:12;16.13;;;4.15;;
17173;SDS011;8702;48.130;-1.696;2022-12-29T02:57:39;17.03;;;4.60;;
17173;SDS011;8702;48.130;-1.696;2022-12-29T03:00:06;18.08;;;4.43;;
17173;SDS011;8702;48.130;-1.696;2022-12-29T03:02:46;20.05;;;4.68;;
17173;SDS011;8702;48.130;-1.696;2022-12-29T03:05:33;15.13;;;3.90;;
17173;SDS011;8702;48.130;-1.696;2022-12-29T03:08:28;18.75;;;4.70;;
17173;SDS011;8702;48.130;-1.696;2022-12-29T03:11:02;20.40;;;4.47;;
17173;SDS011;8702;48.130;-1.696;2022-12-29T03:13:33;19.27;;;4.90;;
17173;SDS011;8702;48.130;-1.696;2022-12-29T03:16:23;19.88;;;4.32;;
17173;SDS011;8702;48.130;-1.696;2022-12-29T03:18:59;17.53;;;4.20;;
17173;SDS011;8702;48.130;-1.696;2022-12-29T03:21:32;22.05;;;4.88;;
17173;SDS011;8702;48.130;-1.696;2022-12-29T03:24:22;16.43;;;4.03;;
17173;SDS011;8702;48.130;-1.696;2022-12-29T03:26:52;18.40;;;4.32;;
17173;SDS011;8702;48.130;-1.696;2022-12-29T03:29:22;17.55;;;4.57;;
17173;SDS011;8702;48.130;-1.696;2022-12-29T03:31:50;16.55;;;4.07;;
17173;SDS011;8702;48.130;-1.696;2022-12-29T03:34:20;19.88;;;4.35;;
17173;SDS011;8702;48.130;-1.696;2022-12-29T03:36:49;16.27;;;4.28;;
17173;SDS011;8702;48.130;-1.696;2022-12-29T03:39:20;15.05;;;3.63;;
17173;SDS011;8702;48.130;-1.696;2022-12-29T03:41:50;15.77;;;3.90;;
17173;SDS011;8702;48.130;-1.696;2022-12-29T03:44:21;17.63;;;3.88;;
17173;SDS011;8702;48.130;-1.696;2022-12-29T03:46:59;17.88;;;4.35;;
17173;SDS011;8702;48.130;-1.696;2022-12-29T03:49:28;17.08;;;4.00;;
17173;SDS011;8702;48.130;-1.696;2022-12-29T03:51:55;18.02;;;3.85;;
17173;SDS011;8702;48.130;-1.696;2022-12-29T03:54:22;16.67;;;4.30;;
17173;SDS011;8702;48.130;-1.696;2022-12-29T03:56:49;15.93;;;4.13;;
17173;SDS011;8702;48.130;-1.696;2022-12-29T03:59:16;18.35;;;3.85;;
17173;SDS011;8702;48.130;-1.696;2022-12-29T04:01:43;17.80;;;4.20;;
17173;SDS011;8702;48.130;-1.696;2022-12-29T04:04:10;15.50;;;3.88;;
17173;SDS011;8702;48.130;-1.696;2022-12-29T04:06:39;15.10;;;3.58;;
17173;SDS011;8702;48.130;-1.696;2022-12-29T04:09:06;19.02;;;4.72;;
17173;SDS011;8702;48.130;-1.696;2022-12-29T04:11:33;16.53;;;4.17;;
17173;SDS011;8702;48.130;-1.696;2022-12-29T04:14:00;16.77;;;4.30;;
17173;SDS011;8702;48.130;-1.696;2022-12-29T04:16:27;17.58;;;4.53;;
17173;SDS011;8702;48.130;-1.696;2022-12-29T04:18:54;13.45;;;4.10;;
17173;SDS011;8702;48.130;-1.696;2022-12-29T04:21:21;19.42;;;4.55;;
17173;SDS011;8702;48.130;-1.696;2022-12-29T04:23:49;16.23;;;4.30;;
17173;SDS011;8702;48.130;-1.696;2022-12-29T04:26:16;19.77;;;4.38;;
17173;SDS011;8702;48.130;-1.696;2022-12-29T04:28:43;16.90;;;4.10;;
17173;SDS011;8702;48.130;-1.696;2022-12-29T04:31:10;17.95;;;4.57;;
17173;SDS011;8702;48.130;-1.696;2022-12-29T04:33:37;20.98;;;4.75;;
17173;SDS011;8702;48.130;-1.696;2022-12-29T04:36:04;19.58;;;4.22;;
17173;SDS011;8702;48.130;-1.696;2022-12-29T04:38:31;19.10;;;4.20;;
17173;SDS011;8702;48.130;-1.696;2022-12-29T04:41:00;20.77;;;4.57;;
17173;SDS011;8702;48.130;-1.696;2022-12-29T04:43:28;20.33;;;4.63;;
17173;SDS011;8702;48.130;-1.696;2022-12-29T04:45:55;21.23;;;5.28;;
17173;SDS011;8702;48.130;-1.696;2022-12-29T04:48:22;17.08;;;4.38;;
17173;SDS011;8702;48.130;-1.696;2022-12-29T04:50:49;18.27;;;4.38;;
17173;SDS011;8702;48.130;-1.696;2022-12-29T04:53:16;21.05;;;4.63;;
17173;SDS011;8702;48.130;-1.696;2022-12-29T04:55:44;20.63;;;4.45;;
17173;SDS011;8702;48.130;-1.696;2022-12-29T04:58:15;19.95;;;4.75;;
17173;SDS011;8702;48.130;-1.696;2022-12-29T05:00:42;19.50;;;4.47;;
17173;SDS011;8702;48.130;-1.696;2022-12-29T05:03:09;21.25;;;4.90;;
17173;SDS011;8702;48.130;-1.696;2022-12-29T05:05:36;18.02;;;4.45;;
17173;SDS011;8702;48.130;-1.696;2022-12-29T05:08:03;16.17;;;4.07;;
17173;SDS011;8702;48.130;-1.696;2022-12-29T05:10:31;21.85;;;5.07;;
17173;SDS011;8702;48.130;-1.696;2022-12-29T05:12:58;24.40;;;5.05;;
17173;SDS011;8702;48.130;-1.696;2022-12-29T05:15:27;21.08;;;4.88;;
17173;SDS011;8702;48.130;-1.696;2022-12-29T05:17:54;24.52;;;5.35;;
17173;SDS011;8702;48.130;-1.696;2022-12-29T05:20:21;22.63;;;5.22;;
17173;SDS011;8702;48.130;-1.696;2022-12-29T05:22:48;17.92;;;4.50;;
17173;SDS011;8702;48.130;-1.696;2022-12-29T05:25:15;22.42;;;5.43;;
17173;SDS011;8702;48.130;-1.696;2022-12-29T05:27:42;22.25;;;5.00;;
17173;SDS011;8702;48.130;-1.696;2022-12-29T05:30:09;22.13;;;4.90;;
17173;SDS011;8702;48.130;-1.696;2022-12-29T05:32:38;21.10;;;4.93;;
17173;SDS011;8702;48.130;-1.696;2022-12-29T05:35:05;22.95;;;5.35;;
17173;SDS011;8702;48.130;-1.696;2022-12-29T05:37:33;21.42;;;5.30;;
17173;SDS011;8702;48.130;-1.696;2022-12-29T05:40:00;22.98;;;5.15;;
17173;SDS011;8702;48.130;-1.696;2022-12-29T05:42:27;23.95;;;5.30;;
17173;SDS011;8702;48.130;-1.696;2022-12-29T05:44:54;20.90;;;5.35;;
17173;SDS011;8702;48.130;-1.696;2022-12-29T05:47:21;22.05;;;5.22;;
17173;SDS011;8702;48.130;-1.696;2022-12-29T05:49:49;26.92;;;5.95;;
17173;SDS011;8702;48.130;-1.696;2022-12-29T05:52:16;25.05;;;5.07;;
17173;SDS011;8702;48.130;-1.696;2022-12-29T05:54:43;23.23;;;5.28;;
17173;SDS011;8702;48.130;-1.696;2022-12-29T05:57:10;24.42;;;5.28;;
17173;SDS011;8702;48.130;-1.696;2022-12-29T05:59:37;22.58;;;4.88;;
17173;SDS011;8702;48.130;-1.696;2022-12-29T06:02:04;24.33;;;5.38;;
17173;SDS011;8702;48.130;-1.696;2022-12-29T06:04:31;21.35;;;5.32;;
17173;SDS011;8702;48.130;-1.696;2022-12-29T06:06:59;20.73;;;5.10;;
17173;SDS011;8702;48.130;-1.696;2022-12-29T06:09:26;21.42;;;5.30;;
17173;SDS011;8702;48.130;-1.696;2022-12-29T06:11:53;21.08;;;5.32;;
17173;SDS011;8702;48.130;-1.696;2022-12-29T06:14:20;19.58;;;4.65;;
17173;SDS011;8702;48.130;-1.696;2022-12-29T06:16:47;21.08;;;5.22;;
17173;SDS011;8702;48.130;-1.696;2022-12-29T06:19:14;24.08;;;5.07;;
17173;SDS011;8702;48.130;-1.696;2022-12-29T06:21:41;24.85;;;5.45;;
17173;SDS011;8702;48.130;-1.696;2022-12-29T06:24:09;26.45;;;5.43;;
17173;SDS011;8702;48.130;-1.696;2022-12-29T06:26:36;22.10;;;5.20;;
17173;SDS011;8702;48.130;-1.696;2022-12-29T06:29:03;19.23;;;5.22;;
17173;SDS011;8702;48.130;-1.696;2022-12-29T06:31:30;17.55;;;4.68;;
17173;SDS011;8702;48.130;-1.696;2022-12-29T06:33:57;19.95;;;5.28;;
17173;SDS011;8702;48.130;-1.696;2022-12-29T06:36:24;22.10;;;5.00;;
17173;SDS011;8702;48.130;-1.696;2022-12-29T06:38:51;20.90;;;5.20;;
17173;SDS011;8702;48.130;-1.696;2022-12-29T06:41:20;22.02;;;4.97;;
17173;SDS011;8702;48.130;-1.696;2022-12-29T06:43:47;23.60;;;5.33;;
17173;SDS011;8702;48.130;-1.696;2022-12-29T06:46:16;23.05;;;5.30;;
17173;SDS011;8702;48.130;-1.696;2022-12-29T06:48:42;18.60;;;4.78;;
17173;SDS011;8702;48.130;-1.696;2022-12-29T06:51:11;27.30;;;5.60;;
17173;SDS011;8702;48.130;-1.696;2022-12-29T06:53:38;20.38;;;5.15;;
17173;SDS011;8702;48.130;-1.696;2022-12-29T06:56:06;24.30;;;5.30;;
17173;SDS011;8702;48.130;-1.696;2022-12-29T06:58:36;22.17;;;5.20;;
17173;SDS011;8702;48.130;-1.696;2022-12-29T07:01:04;19.83;;;5.15;;
17173;SDS011;8702;48.130;-1.696;2022-12-29T07:03:32;23.33;;;5.17;;
17173;SDS011;8702;48.130;-1.696;2022-12-29T07:06:00;24.02;;;5.50;;
17173;SDS011;8702;48.130;-1.696;2022-12-29T07:08:28;24.50;;;4.90;;
17173;SDS011;8702;48.130;-1.696;2022-12-29T07:10:55;22.97;;;5.07;;
17173;SDS011;8702;48.130;-1.696;2022-12-29T07:13:22;18.85;;;4.55;;
17173;SDS011;8702;48.130;-1.696;2022-12-29T07:15:50;25.38;;;5.82;;
17173;SDS011;8702;48.130;-1.696;2022-12-29T07:18:17;20.17;;;5.18;;
17173;SDS011;8702;48.130;-1.696;2022-12-29T07:20:44;22.80;;;5.65;;
17173;SDS011;8702;48.130;-1.696;2022-12-29T07:23:11;20.45;;;5.05;;
17173;SDS011;8702;48.130;-1.696;2022-12-29T07:25:38;23.13;;;5.90;;
17173;SDS011;8702;48.130;-1.696;2022-12-29T07:28:06;22.10;;;5.13;;
17173;SDS011;8702;48.130;-1.696;2022-12-29T07:30:36;21.42;;;5.05;;
17173;SDS011;8702;48.130;-1.696;2022-12-29T07:33:05;21.83;;;4.72;;
17173;SDS011;8702;48.130;-1.696;2022-12-29T07:35:33;23.95;;;4.90;;
17173;SDS011;8702;48.130;-1.696;2022-12-29T07:38:00;23.15;;;5.32;;
17173;SDS011;8702;48.130;-1.696;2022-12-29T07:40:27;20.43;;;4.97;;
17173;SDS011;8702;48.130;-1.696;2022-12-29T07:42:57;24.98;;;5.30;;
17173;SDS011;8702;48.130;-1.696;2022-12-29T07:45:24;21.67;;;4.85;;
17173;SDS011;8702;48.130;-1.696;2022-12-29T07:47:51;21.67;;;4.97;;
17173;SDS011;8702;48.130;-1.696;2022-12-29T07:50:19;20.30;;;4.80;;
17173;SDS011;8702;48.130;-1.696;2022-12-29T07:52:49;16.58;;;4.88;;
17173;SDS011;8702;48.130;-1.696;2022-12-29T07:55:16;22.30;;;4.95;;
17173;SDS011;8702;48.130;-1.696;2022-12-29T07:57:43;23.70;;;5.57;;
17173;SDS011;8702;48.130;-1.696;2022-12-29T08:00:10;21.23;;;5.30;;
17173;SDS011;8702;48.130;-1.696;2022-12-29T08:02:38;21.83;;;5.38;;
17173;SDS011;8702;48.130;-1.696;2022-12-29T08:05:05;22.40;;;5.30;;
17173;SDS011;8702;48.130;-1.696;2022-12-29T08:07:34;19.33;;;5.20;;
17173;SDS011;8702;48.130;-1.696;2022-12-29T08:10:00;22.13;;;5.35;;
17173;SDS011;8702;48.130;-1.696;2022-12-29T08:12:27;21.90;;;5.90;;
17173;SDS011;8702;48.130;-1.696;2022-12-29T08:14:54;24.85;;;5.95;;
17173;SDS011;8702;48.130;-1.696;2022-12-29T08:17:21;25.48;;;5.72;;
17173;SDS011;8702;48.130;-1.696;2022-12-29T08:19:48;23.55;;;5.28;;
17173;SDS011;8702;48.130;-1.696;2022-12-29T08:22:15;23.92;;;5.60;;
17173;SDS011;8702;48.130;-1.696;2022-12-29T08:24:44;16.90;;;4.20;;
17173;SDS011;8702;48.130;-1.696;2022-12-29T08:27:11;21.00;;;5.78;;
17173;SDS011;8702;48.130;-1.696;2022-12-29T08:29:38;23.50;;;5.28;;
17173;SDS011;8702;48.130;-1.696;2022-12-29T08:32:05;23.20;;;5.22;;
17173;SDS011;8702;48.130;-1.696;2022-12-29T08:34:32;20.27;;;5.30;;
17173;SDS011;8702;48.130;-1.696;2022-12-29T08:36:59;23.00;;;5.90;;
17173;SDS011;8702;48.130;-1.696;2022-12-29T08:39:26;24.65;;;5.35;;
17173;SDS011;8702;48.130;-1.696;2022-12-29T08:41:54;22.48;;;5.22;;
17173;SDS011;8702;48.130;-1.696;2022-12-29T08:44:22;20.40;;;5.25;;
17173;SDS011;8702;48.130;-1.696;2022-12-29T08:46:49;20.10;;;5.10;;
17173;SDS011;8702;48.130;-1.696;2022-12-29T08:49:16;22.57;;;5.73;;
17173;SDS011;8702;48.130;-1.696;2022-12-29T08:51:43;20.92;;;5.25;;
17173;SDS011;8702;48.130;-1.696;2022-12-29T08:54:10;22.08;;;6.05;;
17173;SDS011;8702;48.130;-1.696;2022-12-29T08:56:37;20.80;;;5.72;;
17173;SDS011;8702;48.130;-1.696;2022-12-29T08:59:05;21.48;;;5.47;;
17173;SDS011;8702;48.130;-1.696;2022-12-29T09:01:32;22.35;;;5.20;;
17173;SDS011;8702;48.130;-1.696;2022-12-29T09:04:01;18.85;;;4.88;;
17173;SDS011;8702;48.130;-1.696;2022-12-29T09:06:28;19.38;;;5.38;;
17173;SDS011;8702;48.130;-1.696;2022-12-29T09:08:55;24.42;;;5.47;;
17173;SDS011;8702;48.130;-1.696;2022-12-29T09:11:23;21.48;;;5.22;;
17173;SDS011;8702;48.130;-1.696;2022-12-29T09:13:51;22.17;;;5.20;;
17173;SDS011;8702;48.130;-1.696;2022-12-29T09:16:20;20.60;;;5.70;;
17173;SDS011;8702;48.130;-1.696;2022-12-29T09:18:50;22.38;;;5.10;;
17173;SDS011;8702;48.130;-1.696;2022-12-29T09:21:17;24.25;;;5.93;;
17173;SDS011;8702;48.130;-1.696;2022-12-29T09:23:44;23.58;;;5.75;;
17173;SDS011;8702;48.130;-1.696;2022-12-29T09:26:11;24.90;;;6.35;;
17173;SDS011;8702;48.130;-1.696;2022-12-29T09:28:38;20.33;;;5.85;;
17173;SDS011;8702;48.130;-1.696;2022-12-29T09:31:05;26.27;;;6.05;;
17173;SDS011;8702;48.130;-1.696;2022-12-29T09:33:34;26.37;;;5.53;;
17173;SDS011;8702;48.130;-1.696;2022-12-29T09:36:01;22.60;;;5.38;;
17173;SDS011;8702;48.130;-1.696;2022-12-29T09:38:28;22.25;;;5.53;;
17173;SDS011;8702;48.130;-1.696;2022-12-29T09:40:56;25.58;;;5.22;;
17173;SDS011;8702;48.130;-1.696;2022-12-29T09:43:39;20.63;;;5.43;;
17173;SDS011;8702;48.130;-1.696;2022-12-29T09:46:22;22.50;;;4.95;;
17173;SDS011;8702;48.130;-1.696;2022-12-29T09:48:53;20.23;;;5.40;;
17173;SDS011;8702;48.130;-1.696;2022-12-29T09:51:34;18.60;;;5.07;;
17173;SDS011;8702;48.130;-1.696;2022-12-29T09:54:04;19.42;;;5.35;;
17173;SDS011;8702;48.130;-1.696;2022-12-29T09:56:49;23.02;;;5.40;;
17173;SDS011;8702;48.130;-1.696;2022-12-29T09:59:19;24.50;;;5.53;;
17173;SDS011;8702;48.130;-1.696;2022-12-29T10:01:49;21.02;;;5.20;;
17173;SDS011;8702;48.130;-1.696;2022-12-29T10:04:24;23.13;;;5.20;;
17173;SDS011;8702;48.130;-1.696;2022-12-29T10:06:54;16.57;;;4.67;;
17173;SDS011;8702;48.130;-1.696;2022-12-29T10:09:25;22.27;;;5.40;;
17173;SDS011;8702;48.130;-1.696;2022-12-29T10:12:04;20.33;;;5.22;;
17173;SDS011;8702;48.130;-1.696;2022-12-29T10:14:52;21.25;;;5.30;;
17173;SDS011;8702;48.130;-1.696;2022-12-29T10:17:30;19.73;;;5.65;;
17173;SDS011;8702;48.130;-1.696;2022-12-29T10:20:13;20.58;;;5.32;;
17173;SDS011;8702;48.130;-1.696;2022-12-29T10:22:55;17.80;;;4.63;;
17173;SDS011;8702;48.130;-1.696;2022-12-29T10:25:38;21.03;;;5.00;;
17173;SDS011;8702;48.130;-1.696;2022-12-29T10:28:10;21.20;;;5.50;;
17173;SDS011;8702;48.130;-1.696;2022-12-29T10:30:43;20.50;;;4.75;;
17173;SDS011;8702;48.130;-1.696;2022-12-29T10:33:14;18.60;;;4.82;;
17173;SDS011;8702;48.130;-1.696;2022-12-29T10:35:47;17.97;;;4.07;;
17173;SDS011;8702;48.130;-1.696;2022-12-29T10:38:15;19.13;;;5.07;;
17173;SDS011;8702;48.130;-1.696;2022-12-29T10:40:51;18.30;;;4.85;;
17173;SDS011;8702;48.130;-1.696;2022-12-29T10:43:24;17.13;;;4.43;;
17173;SDS011;8702;48.130;-1.696;2022-12-29T10:45:53;20.98;;;5.30;;
17173;SDS011;8702;48.130;-1.696;2022-12-29T10:48:24;16.55;;;4.40;;
17173;SDS011;8702;48.130;-1.696;2022-12-29T10:50:56;19.77;;;5.35;;
17173;SDS011;8702;48.130;-1.696;2022-12-29T10:53:25;18.83;;;4.68;;
17173;SDS011;8702;48.130;-1.696;2022-12-29T10:56:04;17.48;;;4.55;;
17173;SDS011;8702;48.130;-1.696;2022-12-29T10:58:36;17.58;;;4.43;;
17173;SDS011;8702;48.130;-1.696;2022-12-29T11:01:04;24.85;;;4.63;;
17173;SDS011;8702;48.130;-1.696;2022-12-29T11:06:25;17.08;;;4.60;;
17173;SDS011;8702;48.130;-1.696;2022-12-29T11:08:56;18.08;;;4.22;;
17173;SDS011;8702;48.130;-1.696;2022-12-29T11:11:27;17.63;;;5.47;;
17173;SDS011;8702;48.130;-1.696;2022-12-29T11:13:56;18.50;;;4.22;;
17173;SDS011;8702;48.130;-1.696;2022-12-29T11:16:27;13.43;;;3.60;;
17173;SDS011;8702;48.130;-1.696;2022-12-29T11:18:55;15.43;;;4.38;;
17173;SDS011;8702;48.130;-1.696;2022-12-29T11:21:25;14.73;;;3.95;;
17173;SDS011;8702;48.130;-1.696;2022-12-29T11:23:56;17.80;;;4.45;;
17173;SDS011;8702;48.130;-1.696;2022-12-29T11:26:23;18.02;;;4.70;;
17173;SDS011;8702;48.130;-1.696;2022-12-29T11:29:04;16.00;;;4.28;;
17173;SDS011;8702;48.130;-1.696;2022-12-29T11:31:36;15.13;;;4.03;;
17173;SDS011;8702;48.130;-1.696;2022-12-29T11:34:06;16.00;;;4.22;;
17173;SDS011;8702;48.130;-1.696;2022-12-29T11:36:34;12.40;;;3.70;;
17173;SDS011;8702;48.130;-1.696;2022-12-29T11:39:03;17.35;;;4.57;;
17173;SDS011;8702;48.130;-1.696;2022-12-29T11:41:31;13.75;;;3.92;;
17173;SDS011;8702;48.130;-1.696;2022-12-29T11:43:58;15.43;;;4.20;;
17173;SDS011;8702;48.130;-1.696;2022-12-29T11:46:27;17.67;;;4.63;;
17173;SDS011;8702;48.130;-1.696;2022-12-29T11:48:54;17.83;;;4.25;;
17173;SDS011;8702;48.130;-1.696;2022-12-29T11:51:25;13.45;;;3.95;;
17173;SDS011;8702;48.130;-1.696;2022-12-29T11:53:55;14.17;;;4.50;;
17173;SDS011;8702;48.130;-1.696;2022-12-29T11:56:32;21.00;;;4.78;;
17173;SDS011;8702;48.130;-1.696;2022-12-29T12:02:28;18.42;;;4.82;;
17173;SDS011;8702;48.130;-1.696;2022-12-29T12:07:52;12.10;;;4.07;;
17173;SDS011;8702;48.130;-1.696;2022-12-29T12:10:24;16.58;;;4.00;;
17173;SDS011;8702;48.130;-1.696;2022-12-29T12:12:58;20.90;;;4.37;;
17173;SDS011;8702;48.130;-1.696;2022-12-29T12:15:30;17.63;;;4.43;;
17173;SDS011;8702;48.130;-1.696;2022-12-29T12:18:02;17.55;;;5.03;;
17173;SDS011;8702;48.130;-1.696;2022-12-29T12:20:34;16.05;;;3.88;;
17173;SDS011;8702;48.130;-1.696;2022-12-29T12:23:11;17.58;;;4.20;;
17173;SDS011;8702;48.130;-1.696;2022-12-29T12:25:40;14.57;;;4.07;;
17173;SDS011;8702;48.130;-1.696;2022-12-29T12:28:13;16.58;;;4.60;;
17173;SDS011;8702;48.130;-1.696;2022-12-29T12:30:44;16.27;;;3.92;;
17173;SDS011;8702;48.130;-1.696;2022-12-29T12:33:15;18.40;;;4.32;;
17173;SDS011;8702;48.130;-1.696;2022-12-29T12:35:43;14.98;;;3.88;;
17173;SDS011;8702;48.130;-1.696;2022-12-29T12:38:16;19.00;;;4.32;;
17173;SDS011;8702;48.130;-1.696;2022-12-29T12:40:54;16.00;;;3.65;;
17173;SDS011;8702;48.130;-1.696;2022-12-29T12:43:34;18.52;;;4.70;;
17173;SDS011;8702;48.130;-1.696;2022-12-29T12:46:07;14.85;;;4.10;;
17173;SDS011;8702;48.130;-1.696;2022-12-29T12:48:59;17.05;;;4.15;;
17173;SDS011;8702;48.130;-1.696;2022-12-29T12:51:30;13.55;;;3.55;;
17173;SDS011;8702;48.130;-1.696;2022-12-29T12:54:03;13.83;;;4.00;;
17173;SDS011;8702;48.130;-1.696;2022-12-29T12:59:34;15.95;;;4.00;;
17173;SDS011;8702;48.130;-1.696;2022-12-29T13:02:08;14.52;;;4.15;;
17173;SDS011;8702;48.130;-1.696;2022-12-29T13:07:25;15.27;;;4.00;;
17173;SDS011;8702;48.130;-1.696;2022-12-29T13:10:00;16.52;;;4.22;;
17173;SDS011;8702;48.130;-1.696;2022-12-29T13:12:32;17.40;;;4.20;;
17173;SDS011;8702;48.130;-1.696;2022-12-29T13:15:07;17.48;;;4.90;;
17173;SDS011;8702;48.130;-1.696;2022-12-29T13:17:37;16.17;;;4.13;;
17173;SDS011;8702;48.130;-1.696;2022-12-29T13:20:07;16.10;;;4.15;;
17173;SDS011;8702;48.130;-1.696;2022-12-29T13:22:40;12.70;;;3.47;;
17173;SDS011;8702;48.130;-1.696;2022-12-29T13:25:16;13.35;;;3.30;;
17173;SDS011;8702;48.130;-1.696;2022-12-29T13:27:49;15.13;;;3.63;;
17173;SDS011;8702;48.130;-1.696;2022-12-29T13:30:20;11.67;;;3.13;;
17173;SDS011;8702;48.130;-1.696;2022-12-29T13:32:49;11.80;;;3.40;;
17173;SDS011;8702;48.130;-1.696;2022-12-29T13:35:25;9.02;;;2.92;;
17173;SDS011;8702;48.130;-1.696;2022-12-29T13:37:56;13.07;;;3.15;;
17173;SDS011;8702;48.130;-1.696;2022-12-29T13:40:26;12.85;;;3.35;;
17173;SDS011;8702;48.130;-1.696;2022-12-29T13:42:59;11.77;;;3.22;;
17173;SDS011;8702;48.130;-1.696;2022-12-29T13:45:29;15.27;;;3.55;;
17173;SDS011;8702;48.130;-1.696;2022-12-29T13:47:59;13.55;;;3.40;;
17173;SDS011;8702;48.130;-1.696;2022-12-29T13:50:33;11.00;;;3.10;;
17173;SDS011;8702;48.130;-1.696;2022-12-29T13:53:04;12.43;;;3.72;;
17173;SDS011;8702;48.130;-1.696;2022-12-29T13:55:39;12.65;;;3.63;;
17173;SDS011;8702;48.130;-1.696;2022-12-29T13:58:14;15.45;;;3.45;;
17173;SDS011;8702;48.130;-1.696;2022-12-29T14:00:52;11.77;;;3.42;;
17173;SDS011;8702;48.130;-1.696;2022-12-29T14:03:32;14.65;;;3.40;;
17173;SDS011;8702;48.130;-1.696;2022-12-29T14:06:15;15.07;;;3.45;;
17173;SDS011;8702;48.130;-1.696;2022-12-29T14:08:46;11.73;;;3.25;;
17173;SDS011;8702;48.130;-1.696;2022-12-29T14:11:15;12.73;;;3.17;;
17173;SDS011;8702;48.130;-1.696;2022-12-29T14:13:44;12.73;;;3.28;;
17173;SDS011;8702;48.130;-1.696;2022-12-29T14:16:23;10.65;;;2.75;;
17173;SDS011;8702;48.130;-1.696;2022-12-29T14:18:52;12.75;;;3.15;;
17173;SDS011;8702;48.130;-1.696;2022-12-29T14:21:22;14.13;;;3.03;;
17173;SDS011;8702;48.130;-1.696;2022-12-29T14:23:57;12.75;;;3.00;;
17173;SDS011;8702;48.130;-1.696;2022-12-29T14:26:42;10.23;;;2.70;;
17173;SDS011;8702;48.130;-1.696;2022-12-29T14:29:15;10.77;;;3.05;;
17173;SDS011;8702;48.130;-1.696;2022-12-29T14:31:59;11.65;;;3.22;;
17173;SDS011;8702;48.130;-1.696;2022-12-29T14:34:30;9.05;;;2.47;;
17173;SDS011;8702;48.130;-1.696;2022-12-29T14:37:04;8.70;;;2.35;;
17173;SDS011;8702;48.130;-1.696;2022-12-29T14:39:52;8.75;;;2.70;;
17173;SDS011;8702;48.130;-1.696;2022-12-29T14:42:30;11.03;;;2.77;;
17173;SDS011;8702;48.130;-1.696;2022-12-29T14:44:58;12.25;;;2.67;;
17173;SDS011;8702;48.130;-1.696;2022-12-29T14:47:32;9.02;;;2.78;;
17173;SDS011;8702;48.130;-1.696;2022-12-29T14:50:03;9.85;;;3.08;;
17173;SDS011;8702;48.130;-1.696;2022-12-29T14:52:32;9.87;;;2.90;;
17173;SDS011;8702;48.130;-1.696;2022-12-29T14:55:28;9.75;;;2.63;;
17173;SDS011;8702;48.130;-1.696;2022-12-29T14:58:03;10.25;;;2.70;;
17173;SDS011;8702;48.130;-1.696;2022-12-29T15:00:32;10.17;;;2.80;;
17173;SDS011;8702;48.130;-1.696;2022-12-29T15:03:04;11.30;;;2.83;;
17173;SDS011;8702;48.130;-1.696;2022-12-29T15:05:34;9.18;;;2.65;;
17173;SDS011;8702;48.130;-1.696;2022-12-29T15:08:03;8.95;;;2.60;;
17173;SDS011;8702;48.130;-1.696;2022-12-29T15:10:33;9.45;;;2.45;;
17173;SDS011;8702;48.130;-1.696;2022-12-29T15:13:05;10.98;;;2.88;;
17173;SDS011;8702;48.130;-1.696;2022-12-29T15:15:44;8.05;;;2.58;;
17173;SDS011;8702;48.130;-1.696;2022-12-29T15:18:20;8.50;;;2.30;;